Time;durP1;ratioP1;P1;durP2;ratioP2;P2;SDS_P1;SDS_P2;PMS_P1;PMS_P2;Temp;Humidity;BMP_temperature;BMP_pressure;BME280_temperature;BME280_humidity;BME280_pressure;Samples;Min_cycle;Max_cycle;Signal;HPM_P1;HPM_P2
2022/07/04 00:00:01;596421.00;1.99;1028.04;71744.00;0.24;124.77;;;;;24.60;1.00;;;;;;2274543;61;1370;-89
2022/07/04 00:02:28;167174.00;0.56;289.40;73094.00;0.24;127.11;;;;;24.60;1.00;;;;;;2272503;61;2240;-89
2022/07/04 00:04:55;623688.00;2.08;1075.14;165007.00;0.55;285.67;;;;;24.70;1.00;;;;;;2272479;61;953;-89
2022/07/04 00:07:22;41334.00;0.14;72.20;0.00;0.00;0.62;;;;;24.70;1.00;;;;;;2272826;61;853;-89
2022/07/04 00:17:20;384032.00;1.28;662.36;0.00;0.00;0.62;;;;;24.40;1.00;;;;;;2371536;40;3489;-87
2022/07/04 00:29:39;432916.00;1.44;746.40;60116.00;0.20;104.68;;;;;23.00;1.00;;;;;;2278341;61;1346;-89
2022/07/04 00:34:38;489601.00;1.63;843.92;0.00;0.00;0.62;;;;;23.20;1.00;;;;;;2278175;61;1297;-88
2022/07/04 00:42:10;191745.00;0.64;331.71;0.00;0.00;0.62;;;;;24.30;1.00;;;;;;2279223;56;2146;-88
2022/07/04 00:47:08;258284.00;0.86;446.20;0.00;0.00;0.62;;;;;24.70;1.00;;;;;;2277257;61;1432;-88
2022/07/04 00:52:14;154909.00;0.52;268.27;0.00;0.00;0.62;;;;;24.30;1.00;;;;;;1535770;55;3101;-88
2022/07/04 01:17:06;883371.00;2.94;1526.93;0.00;0.00;0.62;;;;;24.90;1.00;;;;;;2289080;55;3726;-89
2022/07/04 01:19:33;735448.00;2.45;1268.77;60174.00;0.20;104.78;;;;;24.90;1.00;;;;;;2311777;40;3681;-89
2022/07/04 01:22:07;59202.00;0.20;103.10;0.00;0.00;0.62;;;;;24.90;1.00;;;;;;2272228;61;2005;-89
2022/07/04 01:24:34;50935.00;0.17;88.80;0.00;0.00;0.62;;;;;25.20;1.00;;;;;;2272529;61;997;-90
2022/07/04 01:39:34;841551.00;2.81;1453.69;0.00;0.00;0.62;;;;;25.10;1.00;;;;;;2278574;61;1336;-89
2022/07/04 01:44:28;761987.00;2.54;1314.91;4724.00;0.02;8.81;;;;;25.10;1.00;;;;;;2280144;55;3692;-86
2022/07/04 01:51:52;456067.00;1.52;786.22;66571.00;0.22;115.83;;;;;25.10;1.00;;;;;;2282952;40;3504;-87
2022/07/04 02:04:43;302465.00;1.01;522.16;25673.00;0.09;45.09;;;;;24.80;1.00;;;;;;2278728;61;1312;-88
2022/07/04 02:07:10;0.00;0.00;0.62;0.00;0.00;0.62;;;;;24.90;1.00;;;;;;2276888;61;1557;-88
2022/07/04 02:09:37;0.00;0.00;0.62;0.00;0.00;0.62;;;;;24.70;1.00;;;;;;2276909;61;1226;-89
2022/07/04 02:14:51;6492.00;0.02;11.87;0.00;0.00;0.62;;;;;24.90;1.00;;;;;;2275926;61;691;-88
2022/07/04 02:19:53;505873.00;1.69;871.94;0.00;0.00;0.62;;;;;24.70;1.00;;;;;;2317093;55;3602;-87
2022/07/04 02:22:20;71833.00;0.24;124.93;0.00;0.00;0.62;;;;;24.70;1.00;;;;;;2276946;61;1915;-87
2022/07/04 02:29:53;902614.00;3.01;1560.71;0.00;0.00;0.62;;;;;24.30;1.00;;;;;;2293181;55;3792;-89
2022/07/04 02:57:22;462075.00;1.54;796.55;0.00;0.00;0.62;;;;;25.10;1.00;;;;;;2305818;40;3566;-88
2022/07/04 03:14:59;265064.00;0.88;457.86;0.00;0.00;0.62;;;;;24.70;1.00;;;;;;2279415;56;1507;-88
2022/07/04 03:19:55;507782.00;1.69;875.22;0.00;0.00;0.62;;;;;24.50;1.00;;;;;;2278117;61;1315;-87
2022/07/04 03:22:22;166361.00;0.55;288.00;0.00;0.00;0.62;;;;;24.40;1.00;;;;;;2276696;61;1990;-89
2022/07/04 03:24:49;14156.00;0.05;25.15;0.00;0.00;0.62;;;;;24.30;1.00;;;;;;2276705;61;2063;-90
2022/07/04 03:27:16;76066.00;0.25;132.24;0.00;0.00;0.62;;;;;24.30;1.00;;;;;;2276851;61;1054;-89
2022/07/04 03:32:14;181368.00;0.60;313.85;0.00;0.00;0.62;;;;;24.30;1.00;;;;;;2274740;61;1334;-88
2022/07/04 03:42:16;551676.00;1.84;950.85;0.00;0.00;0.62;;;;;24.50;1.00;;;;;;2291713;56;3644;-88
2022/07/04 03:44:44;274754.00;0.92;474.52;72593.00;0.24;126.24;;;;;24.50;1.00;;;;;;2276231;61;2014;-89
2022/07/04 03:47:11;428839.00;1.43;739.39;0.00;0.00;0.62;;;;;24.50;1.00;;;;;;2278366;55;3767;-89
2022/07/04 03:57:06;1111837.00;3.71;1931.61;43395.00;0.14;75.76;;;;;24.10;1.00;;;;;;2274094;61;1333;-88
2022/07/04 03:59:33;260711.00;0.87;450.37;65993.00;0.22;114.84;;;;;24.10;1.00;;;;;;2272126;61;1311;-88
2022/07/04 04:02:00;51013.00;0.17;88.94;0.00;0.00;0.62;;;;;24.30;1.00;;;;;;2272291;61;997;-87
2022/07/04 04:07:11;680423.00;2.27;1173.31;0.00;0.00;0.62;;;;;24.50;1.00;;;;;;2272134;61;587;-88
2022/07/04 04:09:38;295106.00;0.98;509.51;67238.00;0.22;116.99;;;;;24.40;1.00;;;;;;2271856;61;2102;-88
2022/07/04 04:12:07;340247.00;1.13;587.10;66793.00;0.22;116.22;;;;;24.40;1.00;;;;;;2274101;55;3785;-87
2022/07/04 04:14:34;565546.00;1.89;974.76;55029.00;0.18;95.88;;;;;24.40;1.00;;;;;;2275930;61;1074;-88
2022/07/04 04:17:01;626103.00;2.09;1079.31;92212.00;0.31;160.13;;;;;24.50;1.00;;;;;;2276318;61;971;-89
2022/07/04 04:19:28;238749.00;0.80;412.60;0.00;0.00;0.62;;;;;24.50;1.00;;;;;;2274363;61;1273;-89
2022/07/04 04:21:55;326364.00;1.09;563.24;0.00;0.00;0.62;;;;;24.30;1.00;;;;;;2288165;40;3635;-89
2022/07/04 04:24:22;283384.00;0.94;489.36;55921.00;0.19;97.42;;;;;24.30;1.00;;;;;;2276450;61;1922;-89
2022/07/04 04:29:24;671340.00;2.24;1157.57;70656.00;0.24;122.89;;;;;24.40;1.00;;;;;;2273569;61;1394;-90
2022/07/04 04:31:51;268626.00;0.90;463.98;0.00;0.00;0.62;;;;;24.30;1.00;;;;;;2282267;55;3796;-87
2022/07/04 04:34:18;27134.00;0.09;47.62;0.00;0.00;0.62;;;;;24.30;1.00;;;;;;2276227;61;999;-89
2022/07/04 04:36:45;685411.00;2.28;1181.95;0.00;0.00;0.62;;;;;24.10;1.00;;;;;;2276285;61;1098;-87
2022/07/04 04:39:13;104567.00;0.35;181.45;0.00;0.00;0.62;;;;;24.20;1.00;;;;;;2274932;61;1386;-89
2022/07/04 04:41:40;26469.00;0.09;46.47;0.00;0.00;0.62;;;;;24.30;1.00;;;;;;2271826;61;1604;-90
2022/07/04 04:44:07;82296.00;0.27;143.00;0.00;0.00;0.62;;;;;24.30;1.00;;;;;;2271986;61;2000;-88
2022/07/04 04:46:35;459370.00;1.53;791.90;128562.00;0.43;222.85;;;;;24.40;1.00;;;;;;2272107;61;1005;-89
2022/07/04 04:49:02;142789.00;0.48;247.38;0.00;0.00;0.62;;;;;24.50;1.00;;;;;;2272224;61;1436;-87
2022/07/04 04:51:29;975349.00;3.25;1688.86;58241.00;0.19;101.44;;;;;24.70;1.00;;;;;;2272209;61;1090;-87
2022/07/04 04:53:56;216830.00;0.72;374.89;0.00;0.00;0.62;;;;;24.70;1.00;;;;;;2272065;61;1127;-88
2022/07/04 04:56:23;296321.00;0.99;511.60;0.00;0.00;0.62;;;;;24.60;1.00;;;;;;2285425;40;3591;-86
2022/07/04 05:08:49;564307.00;1.88;972.63;0.00;0.00;0.62;;;;;24.50;1.00;;;;;;2278660;40;3508;-88
2022/07/04 05:11:16;283559.00;0.95;489.66;0.00;0.00;0.62;;;;;24.60;1.00;;;;;;2273191;61;1025;-87
2022/07/04 05:33:49;679786.00;2.27;1172.20;0.00;0.00;0.62;;;;;25.10;1.00;;;;;;2289217;40;3605;-89
2022/07/04 05:41:12;779788.00;2.60;1345.90;0.00;0.00;0.62;;;;;25.20;1.00;;;;;;2283191;60;1379;-90
2022/07/04 05:51:15;819452.00;2.73;1415.07;0.00;0.00;0.62;;;;;26.50;1.00;;;;;;1563461;39;3464;-88
2022/07/04 06:06:11;982552.00;3.28;1701.59;0.00;0.00;0.62;;;;;28.00;1.00;;;;;;2217125;59;1838;-89
2022/07/04 06:08:40;441290.00;1.47;760.80;72607.00;0.24;126.27;;;;;28.60;1.00;;;;;;2284600;56;3797;-88
2022/07/04 06:31:06;1188937.00;3.96;2070.23;0.00;0.00;0.62;;;;;26.60;1.00;;;;;;2279167;61;987;-88
2022/07/04 06:38:33;533060.00;1.78;918.76;0.00;0.00;0.62;;;;;26.30;1.00;;;;;;2275159;61;1305;-88
2022/07/04 06:46:01;466470.00;1.55;804.12;0.00;0.00;0.62;;;;;25.90;1.00;;;;;;2293299;55;3709;-88
2022/07/04 06:53:35;935781.00;3.12;1619.05;39484.00;0.13;69.00;;;;;26.80;1.00;;;;;;2285030;55;3678;-87
2022/07/04 07:51:11;1571924.00;5.24;2779.20;65945.00;0.22;114.75;;;;;25.20;1.00;;;;;;2278971;61;982;-90
2022/07/04 08:11:07;977253.00;3.26;1692.23;65467.00;0.22;113.93;;;;;26.80;1.00;;;;;;2512289;40;3518;31
2022/07/04 08:28:29;519020.00;1.73;894.58;66289.00;0.22;115.35;;;;;27.40;1.00;;;;;;2278138;61;1222;-86
2022/07/04 08:30:57;191825.00;0.64;331.85;0.00;0.00;0.62;;;;;27.70;1.00;;;;;;2276131;61;1402;-88
2022/07/04 08:33:24;86909.00;0.29;150.97;0.00;0.00;0.62;;;;;27.70;1.00;;;;;;2276239;61;1400;-90
2022/07/04 08:35:53;239602.00;0.80;414.07;77149.00;0.26;134.11;;;;;27.90;1.00;;;;;;2276378;61;1136;-88
2022/07/04 08:38:21;34479.00;0.11;60.34;0.00;0.00;0.62;;;;;28.20;1.00;;;;;;2276418;61;1478;-88
2022/07/04 08:40:50;230174.00;0.77;397.85;0.00;0.00;0.62;;;;;28.10;1.00;;;;;;2276239;61;1414;-88
2022/07/04 08:43:17;79213.00;0.26;137.68;0.00;0.00;0.62;;;;;28.00;1.00;;;;;;2276225;61;1985;-88
2022/07/04 08:45:50;64006.00;0.21;111.40;0.00;0.00;0.62;;;;;27.70;1.00;;;;;;2276323;61;1088;-89
2022/07/04 08:48:20;30859.00;0.10;54.07;0.00;0.00;0.62;;;;;28.10;1.00;;;;;;2275951;61;976;-87
2022/07/04 08:50:52;146377.00;0.49;253.56;0.00;0.00;0.62;;;;;28.40;1.00;;;;;;2276314;61;1456;-88
2022/07/04 08:53:21;0.00;0.00;0.62;0.00;0.00;0.62;;;;;28.30;1.00;;;;;;2276269;61;1120;-88
2022/07/04 08:58:34;51620.00;0.17;89.99;0.00;0.00;0.62;;;;;28.50;1.00;;;;;;2276362;61;726;-88
2022/07/04 09:01:05;0.00;0.00;0.62;0.00;0.00;0.62;;;;;28.90;1.00;;;;;;2276156;61;1765;-88
2022/07/04 09:03:33;0.00;0.00;0.62;0.00;0.00;0.62;;;;;28.70;1.00;;;;;;2276302;61;1920;-88
2022/07/04 09:06:01;35704.00;0.12;62.45;0.00;0.00;0.62;;;;;28.60;1.00;;;;;;2276243;61;1093;-88
2022/07/04 09:08:28;13882.00;0.05;24.67;0.00;0.00;0.62;;;;;29.20;1.00;;;;;;2275911;61;979;-88
2022/07/04 09:10:55;218030.00;0.73;376.95;0.00;0.00;0.62;;;;;28.80;1.00;;;;;;2276234;61;1412;-88
2022/07/04 09:13:23;9309.00;0.03;16.75;0.00;0.00;0.62;;;;;28.70;1.00;;;;;;2276294;61;1096;-90
2022/07/04 09:15:52;62932.00;0.21;109.55;0.00;0.00;0.62;;;;;29.30;1.00;;;;;;2276327;61;1015;-89
2022/07/04 09:18:26;71228.00;0.24;123.88;0.00;0.00;0.62;;;;;29.80;1.00;;;;;;2276332;61;941;-88
2022/07/04 09:20:54;953973.00;3.18;1651.12;22889.00;0.08;40.27;;;;;30.00;1.00;;;;;;2276287;61;1433;-87
2022/07/04 09:23:22;542475.00;1.81;934.99;18159.00;0.06;32.08;;;;;30.30;1.00;;;;;;2276335;61;1130;-87
2022/07/04 09:25:51;732100.00;2.44;1262.95;80946.00;0.27;140.67;;;;;30.50;1.00;;;;;;2276235;61;1990;-89
2022/07/04 09:28:28;1528653.00;5.10;2697.15;84760.00;0.28;147.26;;;;;30.70;1.00;;;;;;2276141;61;1042;-89
2022/07/04 09:30:55;1095992.00;3.65;1903.26;39857.00;0.13;69.64;;;;;31.00;1.00;;;;;;2276242;61;1293;-86
2022/07/04 09:33:23;117634352.00;392.11;65937632.00;66126.00;0.22;115.07;;;;;30.90;1.00;;;;;;2280669;55;3775;-87
2022/07/04 09:35:51;168449.00;0.56;291.59;65673.00;0.22;114.28;;;;;30.20;1.00;;;;;;2276280;61;1027;-88
2022/07/04 09:38:24;132644.00;0.44;229.89;22291.00;0.07;39.24;;;;;29.90;1.00;;;;;;2276278;61;1112;-88
2022/07/04 09:43:58;277912.00;0.93;479.95;64775.00;0.22;112.73;;;;;30.30;1.00;;;;;;2272795;61;1976;-88
2022/07/04 09:46:25;245900.00;0.82;424.90;72253.00;0.24;125.65;;;;;30.10;1.00;;;;;;2272931;61;2092;-88
2022/07/04 09:48:53;244025.00;0.81;421.67;63145.00;0.21;109.91;;;;;30.10;1.00;;;;;;2272928;61;1308;-87
2022/07/04 09:51:38;95202.00;0.32;165.29;0.00;0.00;0.62;;;;;29.80;1.00;;;;;;2272875;61;1152;-90
2022/07/04 09:54:19;0.00;0.00;0.62;0.00;0.00;0.62;;;;;30.40;1.00;;;;;;2272834;61;1033;-87
2022/07/04 09:56:48;54979.00;0.18;95.80;0.00;0.00;0.62;;;;;30.30;1.00;;;;;;2272748;61;1051;-87
2022/07/04 09:59:15;162607.00;0.54;281.53;0.00;0.00;0.62;;;;;29.80;1.00;;;;;;2272731;61;1570;-89
2022/07/04 10:01:43;0.00;0.00;0.62;0.00;0.00;0.62;;;;;30.20;1.00;;;;;;2272759;61;970;-87
2022/07/04 10:04:13;32004.00;0.11;56.05;0.00;0.00;0.62;;;;;30.10;1.00;;;;;;2272762;61;2010;-87
2022/07/04 10:06:41;39107.00;0.13;68.34;0.00;0.00;0.62;;;;;30.30;1.00;;;;;;2272880;61;1318;-88
2022/07/04 10:09:10;26167.00;0.09;45.95;0.00;0.00;0.62;;;;;29.90;1.00;;;;;;2272818;61;1298;-89
2022/07/04 10:11:44;53897.00;0.18;93.93;0.00;0.00;0.62;;;;;30.00;1.00;;;;;;2272704;61;1095;-88
2022/07/04 10:14:13;643924.00;2.15;1110.13;0.00;0.00;0.62;;;;;30.20;1.00;;;;;;2286209;40;3579;-89
2022/07/04 10:16:41;86136.00;0.29;149.64;0.00;0.00;0.62;;;;;30.30;1.00;;;;;;2273675;61;1058;-84
2022/07/04 10:19:12;0.00;0.00;0.62;0.00;0.00;0.62;;;;;29.90;1.00;;;;;;2273013;61;1282;-85
2022/07/04 10:21:39;67848.00;0.23;118.04;0.00;0.00;0.62;;;;;29.80;1.00;;;;;;2270189;61;1154;-83
2022/07/04 10:24:08;77682.00;0.26;135.03;0.00;0.00;0.62;;;;;30.40;1.00;;;;;;2268714;61;1919;-84
2022/07/04 10:26:35;0.00;0.00;0.62;0.00;0.00;0.62;;;;;30.40;1.00;;;;;;2268543;61;1197;-85
2022/07/04 10:29:02;0.00;0.00;0.62;0.00;0.00;0.62;;;;;30.50;1.00;;;;;;2270816;61;1374;-85
2022/07/04 10:31:31;0.00;0.00;0.62;0.00;0.00;0.62;;;;;30.20;1.00;;;;;;2268501;61;1062;-83
2022/07/04 10:34:00;0.00;0.00;0.62;0.00;0.00;0.62;;;;;30.00;1.00;;;;;;2267927;61;1182;-84
2022/07/04 10:36:30;48126.00;0.16;83.95;0.00;0.00;0.62;;;;;29.80;1.00;;;;;;2268177;61;1254;-82
2022/07/04 10:38:59;0.00;0.00;0.62;0.00;0.00;0.62;;;;;29.20;1.00;;;;;;2270407;61;1459;-83
2022/07/04 10:41:28;0.00;0.00;0.62;0.00;0.00;0.62;;;;;29.30;1.00;;;;;;2271706;61;1156;-84
2022/07/04 10:44:09;127475.00;0.42;220.97;62191.00;0.21;108.26;;;;;29.60;1.00;;;;;;2271286;61;1997;-84
2022/07/04 10:46:46;0.00;0.00;0.62;0.00;0.00;0.62;;;;;29.50;1.00;;;;;;2269478;61;1221;-83
2022/07/04 10:49:22;32451.00;0.11;56.83;0.00;0.00;0.62;;;;;29.40;1.00;;;;;;2270208;61;1376;-83
2022/07/04 10:51:51;431023.00;1.44;743.14;7099.00;0.02;12.92;;;;;29.80;1.00;;;;;;2270798;61;1226;-84
2022/07/04 10:54:20;744568.00;2.48;1284.61;113932.00;0.38;197.61;;;;;30.10;1.00;;;;;;2272511;61;1133;-84
2022/07/04 10:56:53;772931.00;2.58;1333.96;197185.00;0.66;341.08;;;;;29.90;1.00;;;;;;2272091;61;1133;-85
2022/07/04 10:59:22;209621.00;0.70;362.48;68632.00;0.23;119.40;;;;;29.10;1.00;;;;;;2272852;61;1349;-81
2022/07/04 11:01:52;164092.00;0.55;284.09;70642.00;0.24;122.87;;;;;28.70;1.00;;;;;;2270963;61;2103;-84
2022/07/04 11:05:02;216374.00;0.72;374.10;63388.00;0.21;110.33;;;;;28.80;1.00;;;;;;2269092;61;1998;-84
2022/07/04 11:08:06;664441.00;2.21;1145.63;74609.00;0.25;129.72;;;;;29.40;1.00;;;;;;2266212;61;1196;-83
2022/07/04 11:10:38;0.00;0.00;0.62;0.00;0.00;0.62;;;;;29.20;1.00;;;;;;2269426;61;1347;-84
2022/07/04 11:13:23;734603.00;2.45;1267.30;68187.00;0.23;118.63;;;;;29.60;1.00;;;;;;2268914;61;1132;-83
2022/07/04 11:16:07;852497.00;2.84;1472.84;16556.00;0.06;29.31;;;;;29.30;1.00;;;;;;2268265;61;1141;-80
2022/07/04 11:18:45;362926.00;1.21;626.08;0.00;0.00;0.62;;;;;29.10;1.00;;;;;;2267293;61;1644;-82
2022/07/04 11:21:19;439485.00;1.46;757.70;0.00;0.00;0.62;;;;;29.00;1.00;;;;;;2267222;61;1585;-81
2022/07/04 11:23:53;410627.00;1.37;708.08;27049.00;0.09;47.47;;;;;29.00;1.00;;;;;;2266723;61;1101;-83
2022/07/04 11:26:23;68636.00;0.23;119.40;0.00;0.00;0.62;;;;;29.40;1.00;;;;;;2268278;61;2017;-82
2022/07/04 11:28:50;455418.00;1.52;785.10;0.00;0.00;0.62;;;;;29.80;1.00;;;;;;2270001;61;1264;-83
2022/07/04 11:31:17;659174.00;2.20;1136.51;0.00;0.00;0.62;;;;;30.20;1.00;;;;;;2270012;61;1064;-84
2022/07/04 11:33:45;208517.00;0.70;360.58;0.00;0.00;0.62;;;;;30.10;1.00;;;;;;2267938;61;1049;-84
2022/07/04 11:36:16;505809.00;1.69;871.83;29266.00;0.10;51.31;;;;;29.90;1.00;;;;;;2269628;61;1175;-85
2022/07/04 11:38:53;525476.00;1.75;905.70;61264.00;0.20;106.66;;;;;29.80;1.00;;;;;;2272442;61;2374;-86
2022/07/04 11:47:06;264244.00;0.88;456.45;133338.00;0.44;231.09;;;;;29.40;1.00;;;;;;2272493;61;677;-85
2022/07/04 11:49:33;60520.00;0.20;105.38;0.00;0.00;0.62;;;;;29.40;1.00;;;;;;2272289;61;1344;-86
2022/07/04 11:52:00;233887.00;0.78;404.24;20042.00;0.07;35.34;;;;;29.10;1.00;;;;;;2272325;61;1120;-85
2022/07/04 11:54:27;151192.00;0.50;261.86;0.00;0.00;0.62;;;;;29.20;1.00;;;;;;2272570;61;1026;-85
2022/07/04 11:57:09;67389.00;0.22;117.25;0.00;0.00;0.62;;;;;29.70;1.00;;;;;;2272430;61;1104;-86
2022/07/04 11:59:37;7566.00;0.03;13.73;0.00;0.00;0.62;;;;;29.40;1.00;;;;;;2272015;61;1383;-86
2022/07/04 12:02:12;373273.00;1.24;643.86;21386.00;0.07;37.67;;;;;29.70;1.00;;;;;;2271950;61;1418;-84
2022/07/04 12:04:41;559719.00;1.87;964.72;665.00;0.00;1.77;;;;;29.70;1.00;;;;;;2272367;61;1985;-86
2022/07/04 12:07:13;691034.00;2.30;1191.69;40239.00;0.13;70.30;;;;;29.30;1.00;;;;;;2272229;61;1052;-85
2022/07/04 12:09:41;752417.00;2.51;1298.26;46490.00;0.15;81.12;;;;;29.10;1.00;;;;;;2272470;61;1293;-85
2022/07/04 12:12:10;472284.00;1.57;814.12;10786.00;0.04;19.31;;;;;29.00;1.00;;;;;;2272381;61;1137;-87
2022/07/04 12:14:37;258545.00;0.86;446.65;30277.00;0.10;53.06;;;;;29.30;1.00;;;;;;2272148;61;1246;-86
2022/07/04 12:17:18;163986.00;0.55;283.91;0.00;0.00;0.62;;;;;29.70;1.00;;;;;;2272390;61;1108;-85
2022/07/04 12:19:53;94615.00;0.32;164.28;0.00;0.00;0.62;;;;;29.50;1.00;;;;;;2272245;61;1364;-84
2022/07/04 12:22:36;41404.00;0.14;72.32;0.00;0.00;0.62;;;;;29.70;1.00;;;;;;2272385;61;1231;-85
2022/07/04 12:25:05;0.00;0.00;0.62;0.00;0.00;0.62;;;;;29.20;1.00;;;;;;2272418;61;1989;-86
2022/07/04 12:27:35;178512.00;0.60;308.93;33182.00;0.11;58.09;;;;;29.10;1.00;;;;;;2272362;61;1545;-83
2022/07/04 12:30:04;94056.00;0.31;163.31;6946.00;0.02;12.66;;;;;28.80;1.00;;;;;;2272361;61;1415;-84
2022/07/04 12:32:49;189921.00;0.63;328.57;61379.00;0.20;106.86;;;;;28.70;1.00;;;;;;2271434;61;1435;-83
2022/07/04 12:35:36;20265.00;0.07;35.73;0.00;0.00;0.62;;;;;28.00;1.00;;;;;;2272401;61;1080;-85
2022/07/04 12:38:05;47543.00;0.16;82.94;0.00;0.00;0.62;;;;;28.20;1.00;;;;;;2272121;61;1592;-88
2022/07/04 12:40:32;391335.00;1.30;674.91;49349.00;0.16;86.06;;;;;28.90;1.00;;;;;;2271951;61;1608;-85
2022/07/04 12:43:01;127376.00;0.42;220.80;0.00;0.00;0.62;;;;;28.80;1.00;;;;;;2272054;61;1092;-86
2022/07/04 12:45:43;491035.00;1.64;846.39;69161.00;0.23;120.31;;;;;29.00;1.00;;;;;;2272400;61;2000;-85
2022/07/04 12:48:16;148724.00;0.50;257.61;0.00;0.00;0.62;;;;;28.90;1.00;;;;;;2271933;61;1614;-84
2022/07/04 12:50:44;203006.00;0.68;351.10;0.00;0.00;0.62;;;;;29.10;1.00;;;;;;2271912;61;1353;-85
2022/07/04 12:53:11;191480.00;0.64;331.26;0.00;0.00;0.62;;;;;29.10;1.00;;;;;;2271676;61;1162;-86
2022/07/04 12:55:39;109855.00;0.37;190.58;0.00;0.00;0.62;;;;;29.10;1.00;;;;;;2272278;61;1149;-87
2022/07/04 12:58:07;157394.00;0.52;272.55;0.00;0.00;0.62;;;;;28.90;1.00;;;;;;2272298;61;1654;-84
2022/07/04 13:00:34;263403.00;0.88;455.00;0.00;0.00;0.62;;;;;28.60;1.00;;;;;;2272310;61;1277;-87
2022/07/04 13:03:01;187356.00;0.62;324.16;0.00;0.00;0.62;;;;;28.80;1.00;;;;;;2272308;61;1160;-87
2022/07/04 13:05:28;244604.00;0.82;422.67;0.00;0.00;0.62;;;;;28.90;1.00;;;;;;2272250;61;2001;-87
2022/07/04 13:07:56;232993.00;0.78;402.70;0.00;0.00;0.62;;;;;29.40;1.00;;;;;;2272304;61;1024;-87
2022/07/04 13:10:23;375264.00;1.25;647.28;0.00;0.00;0.62;;;;;29.80;1.00;;;;;;2272255;61;1244;-87
2022/07/04 13:12:53;548315.00;1.83;945.05;26832.00;0.09;47.10;;;;;29.50;1.00;;;;;;2283046;56;3817;-88
2022/07/04 13:15:22;543700.00;1.81;937.10;27066.00;0.09;47.50;;;;;29.30;1.00;;;;;;2276256;61;1335;-86
2022/07/04 13:17:49;987481.00;3.29;1710.31;68565.00;0.23;119.28;;;;;28.90;1.00;;;;;;2276853;61;1054;-87
2022/07/04 13:20:16;187904.00;0.63;325.10;0.00;0.00;0.62;;;;;29.30;1.00;;;;;;2274052;61;1369;-88
2022/07/04 13:22:43;368665.00;1.23;635.94;3325.00;0.01;6.38;;;;;29.40;1.00;;;;;;2272948;61;1954;-86
2022/07/04 13:25:11;677691.00;2.26;1168.57;88434.00;0.29;153.60;;;;;29.70;1.00;;;;;;2272775;61;1996;-86
2022/07/04 13:27:38;725315.00;2.42;1251.17;28908.00;0.10;50.69;;;;;29.70;1.00;;;;;;2272914;61;1303;-84
2022/07/04 13:30:06;1279958.00;4.27;2235.47;124582.00;0.42;215.99;;;;;29.40;1.00;;;;;;2272960;61;1359;-86
2022/07/04 13:32:35;1585464.00;5.28;2804.99;124538.00;0.42;215.91;;;;;29.60;1.00;;;;;;2272615;61;1112;-86
2022/07/04 13:35:03;633232.00;2.11;1091.64;62701.00;0.21;109.15;;;;;29.80;1.00;;;;;;2272820;61;1163;-86
2022/07/04 13:37:30;1129119.00;3.76;1962.58;95453.00;0.32;165.72;;;;;29.90;1.00;;;;;;2272857;61;1055;-85
2022/07/04 13:39:57;856673.00;2.86;1480.15;124426.00;0.41;215.72;;;;;29.50;1.00;;;;;;2272577;61;1327;-86
2022/07/04 13:45:09;307952.00;1.03;531.59;0.00;0.00;0.62;;;;;30.40;1.00;;;;;;2272724;61;1919;-85
2022/07/04 13:47:38;261298.00;0.87;451.38;0.00;0.00;0.62;;;;;30.90;1.00;;;;;;2272585;61;1027;-87
2022/07/04 13:50:06;361424.00;1.20;623.50;24905.00;0.08;43.76;;;;;31.40;1.00;;;;;;2272778;61;1349;-86
2022/07/04 13:52:33;606503.00;2.02;1045.45;26598.00;0.09;46.69;;;;;31.10;1.00;;;;;;2272652;61;1135;-83
2022/07/04 13:55:01;251367.00;0.84;434.30;0.00;0.00;0.62;;;;;30.20;1.00;;;;;;2272927;61;1052;-87
2022/07/04 13:57:28;826206.00;2.75;1426.87;32149.00;0.11;56.30;;;;;30.00;1.00;;;;;;2272898;61;936;-86
2022/07/04 13:59:55;842650.00;2.81;1455.61;68172.00;0.23;118.60;;;;;29.90;1.00;;;;;;2272829;61;1275;-85
2022/07/04 14:02:22;970042.00;3.23;1679.48;78554.00;0.26;136.54;;;;;30.00;1.00;;;;;;2272769;61;1565;-85
2022/07/04 14:04:50;712296.00;2.37;1228.57;86680.00;0.29;150.57;;;;;30.00;1.00;;;;;;2272588;61;1050;-85
2022/07/04 14:07:17;783479.00;2.61;1352.33;86873.00;0.29;150.91;;;;;30.00;1.00;;;;;;2272829;61;1074;-85
2022/07/04 14:09:44;535312.00;1.78;922.64;82535.00;0.28;143.42;;;;;29.90;1.00;;;;;;2272756;61;1244;-85
2022/07/04 14:12:12;731551.00;2.44;1262.00;57696.00;0.19;100.49;;;;;29.80;1.00;;;;;;2272724;61;1086;-86
2022/07/04 14:14:39;1037974.00;3.46;1799.85;162006.00;0.54;280.50;;;;;30.10;1.00;;;;;;2272410;61;1811;-84
2022/07/04 14:19:40;974708.00;3.25;1687.73;82749.00;0.28;143.79;;;;;30.40;1.00;;;;;;2276611;61;1380;-86
2022/07/04 14:22:09;321600.00;1.07;555.05;67616.00;0.23;117.64;;;;;30.60;1.00;;;;;;2272533;61;1585;-85
2022/07/04 14:24:36;693746.00;2.31;1196.40;142403.00;0.47;246.71;;;;;30.20;1.00;;;;;;2271050;61;1694;-83
2022/07/04 14:27:04;181422.00;0.60;313.94;67914.00;0.23;118.16;;;;;29.70;1.00;;;;;;2271561;61;2065;-84
2022/07/04 14:29:31;246349.00;0.82;425.67;64878.00;0.22;112.91;;;;;29.60;1.00;;;;;;2272474;61;1275;-85
2022/07/04 14:31:58;224358.00;0.75;387.84;60478.00;0.20;105.30;;;;;29.80;1.00;;;;;;2272715;61;1142;-84
2022/07/04 14:34:25;238352.00;0.79;411.92;59323.00;0.20;103.31;;;;;29.80;1.00;;;;;;2272814;61;1116;-86
2022/07/04 14:36:52;349811.00;1.17;603.54;67101.00;0.22;116.75;;;;;29.80;1.00;;;;;;2272481;61;1215;-85
2022/07/04 14:39:20;212438.00;0.71;367.33;60257.00;0.20;104.92;;;;;29.90;1.00;;;;;;2269521;61;1266;-84
2022/07/04 14:41:49;167553.00;0.56;290.05;65081.00;0.22;113.26;;;;;29.70;1.00;;;;;;2269995;61;1700;-83
2022/07/04 14:44:16;377810.00;1.26;651.66;75256.00;0.25;130.84;;;;;29.70;1.00;;;;;;2271954;61;1095;-84
2022/07/04 14:46:43;201379.00;0.67;348.30;61013.00;0.20;106.23;;;;;29.50;1.00;;;;;;2270558;61;2006;-85
2022/07/04 14:49:10;430941.00;1.44;743.00;145241.00;0.48;251.61;;;;;29.60;1.00;;;;;;2270163;61;1336;-85
2022/07/04 14:51:39;187746.00;0.63;324.83;61630.00;0.21;107.29;;;;;30.10;1.00;;;;;;2269879;61;1171;-84
2022/07/04 14:54:07;234628.00;0.78;405.51;59623.00;0.20;103.83;;;;;30.20;1.00;;;;;;2270030;61;1119;-85
2022/07/04 14:56:36;166685.00;0.56;288.56;56282.00;0.19;98.05;;;;;30.10;1.00;;;;;;2270046;61;1155;-85
2022/07/04 14:59:04;172418.00;0.57;298.43;58770.00;0.20;102.35;;;;;29.80;1.00;;;;;;2269421;61;1351;-85
2022/07/04 15:01:31;280917.00;0.94;485.11;64656.00;0.22;112.52;;;;;29.60;1.00;;;;;;2271055;61;1211;-86
2022/07/04 15:03:58;39547.00;0.13;69.10;0.00;0.00;0.62;;;;;29.70;1.00;;;;;;2270184;61;1083;-86
2022/07/04 15:06:25;23930.00;0.08;42.08;0.00;0.00;0.62;;;;;29.70;1.00;;;;;;2269214;61;1946;-85
2022/07/04 15:08:53;0.00;0.00;0.62;0.00;0.00;0.62;;;;;29.60;1.00;;;;;;2270075;61;1353;-85
2022/07/04 15:11:20;488859.00;1.63;842.64;17000.00;0.06;30.07;;;;;29.90;1.00;;;;;;2269854;61;1113;-86
2022/07/04 15:13:48;0.00;0.00;0.62;0.00;0.00;0.62;;;;;30.10;1.00;;;;;;2269903;61;1118;-84
2022/07/04 15:16:15;0.00;0.00;0.62;0.00;0.00;0.62;;;;;29.80;1.00;;;;;;2269227;61;1283;-85
2022/07/04 15:18:42;0.00;0.00;0.62;0.00;0.00;0.62;;;;;29.20;1.00;;;;;;2269154;61;1343;-84
2022/07/04 15:26:37;88044.00;0.29;152.93;0.00;0.00;0.62;;;;;29.30;1.00;;;;;;2269091;61;1988;-84
2022/07/04 15:29:05;0.00;0.00;0.62;0.00;0.00;0.62;;;;;29.20;1.00;;;;;;2270074;61;1347;-84
2022/07/04 15:31:32;0.00;0.00;0.62;0.00;0.00;0.62;;;;;29.10;1.00;;;;;;2272181;61;1695;-84
2022/07/04 15:33:59;175119.00;0.58;303.08;19365.00;0.06;34.17;;;;;29.50;1.00;;;;;;2272566;61;1182;-82
2022/07/04 15:36:26;185315.00;0.62;320.64;0.00;0.00;0.62;;;;;29.20;1.00;;;;;;2271387;61;1080;-85
2022/07/04 15:38:53;0.00;0.00;0.62;0.00;0.00;0.62;;;;;29.30;1.00;;;;;;2272572;61;1360;-84
2022/07/04 15:41:20;24632.00;0.08;43.29;0.00;0.00;0.62;;;;;29.60;1.00;;;;;;2271645;61;1101;-85
2022/07/04 15:43:47;23937.00;0.08;42.09;0.00;0.00;0.62;;;;;29.30;1.00;;;;;;2270971;61;1139;-85
2022/07/04 15:46:18;0.00;0.00;0.62;0.00;0.00;0.62;;;;;29.20;1.00;;;;;;2271196;61;2021;-86
2022/07/04 15:48:45;31288.00;0.10;54.81;0.00;0.00;0.62;;;;;29.30;1.00;;;;;;2271313;61;1423;-84
2022/07/04 15:51:12;144431.00;0.48;250.21;0.00;0.00;0.62;;;;;29.10;1.00;;;;;;2272326;61;1167;-86
2022/07/04 15:53:39;168014.00;0.56;290.85;0.00;0.00;0.62;;;;;29.10;1.00;;;;;;2271759;61;1158;-86
2022/07/04 15:56:06;0.00;0.00;0.62;0.00;0.00;0.62;;;;;29.30;1.00;;;;;;2270831;61;1076;-84